sensor_id;sensor_type;location;lat;lon;timestamp;pressure;altitude;pressure_sealevel;temperature;humidity
57827;BME280;43656;57.746;11.780;2023-01-28T00:01:47;102399.81;;;5.17;88.57
57827;BME280;43656;57.746;11.780;2023-01-28T00:04:12;102392.66;;;5.17;88.89
57827;BME280;43656;57.746;11.780;2023-01-28T00:06:37;102364.44;;;5.04;88.86
57827;BME280;43656;57.746;11.780;2023-01-28T00:09:03;102393.00;;;5.24;88.23
57827;BME280;43656;57.746;11.780;2023-01-28T00:11:28;102381.97;;;5.17;88.44
57827;BME280;43656;57.746;11.780;2023-01-28T00:13:54;102392.16;;;5.24;88.54
57827;BME280;43656;57.746;11.780;2023-01-28T00:16:20;102384.00;;;5.25;88.92
57827;BME280;43656;57.746;11.780;2023-01-28T00:18:47;102380.13;;;5.29;88.67
57827;BME280;43656;57.746;11.780;2023-01-28T00:21:14;102375.91;;;5.27;88.82
57827;BME280;43656;57.746;11.780;2023-01-28T00:23:41;102373.09;;;5.28;89.00
57827;BME280;43656;57.746;11.780;2023-01-28T00:26:12;102375.50;;;5.31;89.25
57827;BME280;43656;57.746;11.780;2023-01-28T00:28:39;102368.75;;;5.27;88.92
57827;BME280;43656;57.746;11.780;2023-01-28T00:31:09;102347.97;;;5.31;88.95
57827;BME280;43656;57.746;11.780;2023-01-28T00:33:35;102355.47;;;5.37;88.92
57827;BME280;43656;57.746;11.780;2023-01-28T00:36:03;102347.59;;;5.35;88.54
57827;BME280;43656;57.746;11.780;2023-01-28T00:38:28;102341.41;;;5.35;89.26
57827;BME280;43656;57.746;11.780;2023-01-28T00:40:54;102336.66;;;5.38;88.95
57827;BME280;43656;57.746;11.780;2023-01-28T00:43:20;102338.09;;;5.42;88.71
57827;BME280;43656;57.746;11.780;2023-01-28T00:45:45;102333.72;;;5.41;88.59
57827;BME280;43656;57.746;11.780;2023-01-28T00:48:11;102333.88;;;5.40;88.71
57827;BME280;43656;57.746;11.780;2023-01-28T00:50:36;102331.91;;;5.42;88.82
57827;BME280;43656;57.746;11.780;2023-01-28T00:53:03;102324.47;;;5.46;88.61
57827;BME280;43656;57.746;11.780;2023-01-28T00:55:29;102320.00;;;5.46;88.93
57827;BME280;43656;57.746;11.780;2023-01-28T00:57:54;102317.59;;;5.43;89.55
57827;BME280;43656;57.746;11.780;2023-01-28T01:00:20;102310.88;;;5.49;89.54
57827;BME280;43656;57.746;11.780;2023-01-28T01:02:51;102305.78;;;5.46;89.84
57827;BME280;43656;57.746;11.780;2023-01-28T01:05:17;102314.66;;;5.46;89.66
57827;BME280;43656;57.746;11.780;2023-01-28T01:07:42;102294.88;;;5.49;89.48
57827;BME280;43656;57.746;11.780;2023-01-28T01:10:14;102300.53;;;5.55;89.40
57827;BME280;43656;57.746;11.780;2023-01-28T01:12:40;102303.66;;;5.60;89.82
57827;BME280;43656;57.746;11.780;2023-01-28T01:15:07;102290.09;;;5.52;89.77
57827;BME280;43656;57.746;11.780;2023-01-28T01:17:33;102287.91;;;5.57;89.86
57827;BME280;43656;57.746;11.780;2023-01-28T01:19:59;102277.66;;;5.62;89.64
57827;BME280;43656;57.746;11.780;2023-01-28T01:22:24;102288.09;;;5.65;89.81
57827;BME280;43656;57.746;11.780;2023-01-28T01:24:49;102279.91;;;5.57;90.37
57827;BME280;43656;57.746;11.780;2023-01-28T01:27:15;102264.25;;;5.53;90.20
57827;BME280;43656;57.746;11.780;2023-01-28T01:29:40;102269.41;;;5.65;90.03
57827;BME280;43656;57.746;11.780;2023-01-28T01:32:06;102254.94;;;5.68;89.83
57827;BME280;43656;57.746;11.780;2023-01-28T01:34:31;102255.78;;;5.69;89.83
57827;BME280;43656;57.746;11.780;2023-01-28T01:36:57;102255.13;;;5.55;90.80
57827;BME280;43656;57.746;11.780;2023-01-28T01:39:23;102267.19;;;5.71;90.45
57827;BME280;43656;57.746;11.780;2023-01-28T01:41:48;102261.97;;;5.69;90.36
57827;BME280;43656;57.746;11.780;2023-01-28T01:47:14;102241.50;;;5.79;90.20
57827;BME280;43656;57.746;11.780;2023-01-28T01:49:41;102258.13;;;5.83;90.13
57827;BME280;43656;57.746;11.780;2023-01-28T01:52:14;102245.16;;;5.78;90.23
57827;BME280;43656;57.746;11.780;2023-01-28T01:54:42;102241.50;;;5.79;89.83
57827;BME280;43656;57.746;11.780;2023-01-28T01:57:13;102244.78;;;5.83;89.97
57827;BME280;43656;57.746;11.780;2023-01-28T01:59:41;102242.91;;;5.74;90.20
57827;BME280;43656;57.746;11.780;2023-01-28T02:02:09;102240.53;;;5.80;90.10
57827;BME280;43656;57.746;11.780;2023-01-28T02:04:38;102237.59;;;5.83;90.35
57827;BME280;43656;57.746;11.780;2023-01-28T02:07:04;102230.69;;;5.81;90.48
57827;BME280;43656;57.746;11.780;2023-01-28T02:09:32;102228.28;;;5.78;90.53
57827;BME280;43656;57.746;11.780;2023-01-28T02:12:23;102231.75;;;5.89;90.06
57827;BME280;43656;57.746;11.780;2023-01-28T02:14:53;102230.03;;;5.88;90.01
57827;BME280;43656;57.746;11.780;2023-01-28T02:17:20;102221.31;;;5.86;90.19
57827;BME280;43656;57.746;11.780;2023-01-28T02:20:03;102222.72;;;5.91;90.11
57827;BME280;43656;57.746;11.780;2023-01-28T02:31:11;102210.84;;;5.74;90.66
57827;BME280;43656;57.746;11.780;2023-01-28T02:39:19;102193.41;;;5.79;91.10
57827;BME280;43656;57.746;11.780;2023-01-28T02:41:56;102194.72;;;5.85;91.02
57827;BME280;43656;57.746;11.780;2023-01-28T02:44:23;102169.38;;;5.70;91.00
57827;BME280;43656;57.746;11.780;2023-01-28T02:46:51;102199.94;;;5.86;90.80
57827;BME280;43656;57.746;11.780;2023-01-28T02:49:47;102189.09;;;5.88;91.17
57827;BME280;43656;57.746;11.780;2023-01-28T02:52:31;102169.69;;;5.86;91.22
57827;BME280;43656;57.746;11.780;2023-01-28T03:01:23;102162.94;;;5.82;91.33
57827;BME280;43656;57.746;11.780;2023-01-28T03:06:23;102163.91;;;5.81;91.18
57827;BME280;43656;57.746;11.780;2023-01-28T03:09:00;102164.34;;;5.86;91.25
57827;BME280;43656;57.746;11.780;2023-01-28T03:12:04;102162.00;;;5.93;91.09
57827;BME280;43656;57.746;11.780;2023-01-28T03:15:13;102156.06;;;5.89;90.71
57827;BME280;43656;57.746;11.780;2023-01-28T03:18:24;102162.41;;;5.88;91.20
57827;BME280;43656;57.746;11.780;2023-01-28T03:21:15;102165.97;;;5.98;90.74
57827;BME280;43656;57.746;11.780;2023-01-28T03:24:10;102153.88;;;5.94;91.06
57827;BME280;43656;57.746;11.780;2023-01-28T03:29:45;102137.09;;;5.92;91.07
57827;BME280;43656;57.746;11.780;2023-01-28T03:32:32;102137.84;;;5.94;90.93
57827;BME280;43656;57.746;11.780;2023-01-28T03:35:18;102139.28;;;6.08;90.40
57827;BME280;43656;57.746;11.780;2023-01-28T03:38:06;102139.84;;;6.11;90.37
57827;BME280;43656;57.746;11.780;2023-01-28T03:40:54;102123.53;;;6.05;90.03
57827;BME280;43656;57.746;11.780;2023-01-28T03:43:20;102145.75;;;6.05;90.52
57827;BME280;43656;57.746;11.780;2023-01-28T03:45:46;102131.28;;;6.08;90.03
57827;BME280;43656;57.746;11.780;2023-01-28T03:48:20;102140.28;;;6.07;90.68
57827;BME280;43656;57.746;11.780;2023-01-28T03:50:46;102132.25;;;6.07;90.84
57827;BME280;43656;57.746;11.780;2023-01-28T03:53:12;102137.59;;;6.07;90.91
57827;BME280;43656;57.746;11.780;2023-01-28T03:55:40;102124.53;;;6.14;90.32
57827;BME280;43656;57.746;11.780;2023-01-28T03:58:05;102118.06;;;6.06;90.17
57827;BME280;43656;57.746;11.780;2023-01-28T04:00:31;102122.97;;;6.11;90.60
57827;BME280;43656;57.746;11.780;2023-01-28T04:03:03;102126.38;;;6.13;90.83
57827;BME280;43656;57.746;11.780;2023-01-28T04:05:29;102119.88;;;5.96;91.40
57827;BME280;43656;57.746;11.780;2023-01-28T04:07:55;102115.38;;;6.06;90.98
57827;BME280;43656;57.746;11.780;2023-01-28T04:10:20;102115.09;;;6.00;91.26
57827;BME280;43656;57.746;11.780;2023-01-28T04:12:46;102119.59;;;6.09;90.96
57827;BME280;43656;57.746;11.780;2023-01-28T04:15:14;102123.44;;;6.16;90.71
57827;BME280;43656;57.746;11.780;2023-01-28T04:17:46;102132.84;;;6.10;90.95
57827;BME280;43656;57.746;11.780;2023-01-28T04:20:13;102103.84;;;5.96;91.35
57827;BME280;43656;57.746;11.780;2023-01-28T04:22:39;102121.88;;;6.14;91.00
57827;BME280;43656;57.746;11.780;2023-01-28T04:25:05;102099.94;;;6.10;90.46
57827;BME280;43656;57.746;11.780;2023-01-28T04:27:31;102101.59;;;6.01;91.36
57827;BME280;43656;57.746;11.780;2023-01-28T04:29:56;102113.03;;;6.23;90.59
57827;BME280;43656;57.746;11.780;2023-01-28T04:32:22;102112.59;;;6.18;91.01
57827;BME280;43656;57.746;11.780;2023-01-28T04:34:47;102115.13;;;6.29;90.12
57827;BME280;43656;57.746;11.780;2023-01-28T04:37:12;102100.50;;;6.23;90.49
57827;BME280;43656;57.746;11.780;2023-01-28T04:39:38;102102.47;;;6.21;90.65
57827;BME280;43656;57.746;11.780;2023-01-28T04:42:03;102099.38;;;6.26;90.51
57827;BME280;43656;57.746;11.780;2023-01-28T04:44:29;102084.47;;;6.23;90.30
57827;BME280;43656;57.746;11.780;2023-01-28T04:46:54;102095.44;;;6.30;90.48
57827;BME280;43656;57.746;11.780;2023-01-28T04:49:20;102095.00;;;6.25;90.93
57827;BME280;43656;57.746;11.780;2023-01-28T04:51:45;102088.38;;;6.29;90.66
57827;BME280;43656;57.746;11.780;2023-01-28T04:54:11;102086.00;;;6.35;90.68
57827;BME280;43656;57.746;11.780;2023-01-28T04:56:36;102081.38;;;6.38;90.45
57827;BME280;43656;57.746;11.780;2023-01-28T04:59:03;102058.31;;;6.37;90.81
57827;BME280;43656;57.746;11.780;2023-01-28T05:01:29;102052.13;;;6.26;91.29
57827;BME280;43656;57.746;11.780;2023-01-28T05:03:54;102045.78;;;6.27;91.05
57827;BME280;43656;57.746;11.780;2023-01-28T05:06:20;102047.06;;;6.33;90.81
57827;BME280;43656;57.746;11.780;2023-01-28T05:08:46;102039.44;;;6.38;90.79
57827;BME280;43656;57.746;11.780;2023-01-28T05:11:12;102049.84;;;6.31;91.35
57827;BME280;43656;57.746;11.780;2023-01-28T05:13:37;102041.44;;;6.36;91.28
57827;BME280;43656;57.746;11.780;2023-01-28T05:16:04;102050.97;;;6.29;91.48
57827;BME280;43656;57.746;11.780;2023-01-28T05:18:30;102039.44;;;6.28;91.51
57827;BME280;43656;57.746;11.780;2023-01-28T05:20:56;102046.22;;;6.23;91.94
57827;BME280;43656;57.746;11.780;2023-01-28T05:23:22;102033.41;;;6.36;91.40
57827;BME280;43656;57.746;11.780;2023-01-28T05:25:48;102030.03;;;6.34;91.51
57827;BME280;43656;57.746;11.780;2023-01-28T05:28:14;102028.06;;;6.36;91.51
57827;BME280;43656;57.746;11.780;2023-01-28T05:30:39;102021.72;;;6.27;91.94
57827;BME280;43656;57.746;11.780;2023-01-28T05:33:05;102035.38;;;6.24;92.14
57827;BME280;43656;57.746;11.780;2023-01-28T05:35:30;102022.00;;;6.34;92.38
57827;BME280;43656;57.746;11.780;2023-01-28T05:37:55;102015.81;;;6.24;91.84
57827;BME280;43656;57.746;11.780;2023-01-28T05:40:21;102025.50;;;6.34;91.67
57827;BME280;43656;57.746;11.780;2023-01-28T05:42:46;102043.09;;;6.37;91.62
57827;BME280;43656;57.746;11.780;2023-01-28T05:45:12;102041.97;;;6.30;92.05
57827;BME280;43656;57.746;11.780;2023-01-28T05:47:38;102048.56;;;6.35;92.16
57827;BME280;43656;57.746;11.780;2023-01-28T05:50:04;102035.38;;;6.34;91.59
57827;BME280;43656;57.746;11.780;2023-01-28T05:52:30;102032.56;;;6.26;91.89
57827;BME280;43656;57.746;11.780;2023-01-28T05:54:55;102047.34;;;6.30;92.36
57827;BME280;43656;57.746;11.780;2023-01-28T05:57:21;102043.81;;;6.29;92.42
57827;BME280;43656;57.746;11.780;2023-01-28T05:59:46;102060.81;;;6.28;92.50
57827;BME280;43656;57.746;11.780;2023-01-28T06:02:12;102055.75;;;6.35;92.29
57827;BME280;43656;57.746;11.780;2023-01-28T06:04:37;102066.59;;;6.24;93.31
57827;BME280;43656;57.746;11.780;2023-01-28T06:07:03;102067.03;;;6.19;93.53
57827;BME280;43656;57.746;11.780;2023-01-28T06:09:29;102062.81;;;6.17;93.81
57827;BME280;43656;57.746;11.780;2023-01-28T06:11:54;102049.44;;;6.26;93.25
57827;BME280;43656;57.746;11.780;2023-01-28T06:14:21;102045.94;;;6.26;93.50
57827;BME280;43656;57.746;11.780;2023-01-28T06:16:46;102037.75;;;6.27;93.01
57827;BME280;43656;57.746;11.780;2023-01-28T06:19:12;102035.53;;;6.23;93.50
57827;BME280;43656;57.746;11.780;2023-01-28T06:21:37;102036.19;;;6.15;93.70
57827;BME280;43656;57.746;11.780;2023-01-28T06:24:02;102029.47;;;6.21;93.77
57827;BME280;43656;57.746;11.780;2023-01-28T06:26:28;102002.28;;;6.06;93.69
57827;BME280;43656;57.746;11.780;2023-01-28T06:28:54;102035.09;;;6.18;93.88
57827;BME280;43656;57.746;11.780;2023-01-28T06:31:19;102032.41;;;6.18;94.10
57827;BME280;43656;57.746;11.780;2023-01-28T06:33:44;102015.09;;;6.12;93.90
57827;BME280;43656;57.746;11.780;2023-01-28T06:36:10;102017.22;;;6.08;94.86
57827;BME280;43656;57.746;11.780;2023-01-28T06:38:35;101998.38;;;6.00;94.46
57827;BME280;43656;57.746;11.780;2023-01-28T06:41:01;102006.97;;;6.14;94.58
57827;BME280;43656;57.746;11.780;2023-01-28T06:43:26;102026.50;;;6.14;94.78
57827;BME280;43656;57.746;11.780;2023-01-28T06:45:58;102051.28;;;6.16;94.65
57827;BME280;43656;57.746;11.780;2023-01-28T06:48:25;102051.13;;;6.27;93.96
57827;BME280;43656;57.746;11.780;2023-01-28T06:50:51;102044.94;;;6.27;94.13
57827;BME280;43656;57.746;11.780;2023-01-28T06:53:17;102018.63;;;6.13;93.82
57827;BME280;43656;57.746;11.780;2023-01-28T06:55:42;102035.25;;;6.26;94.38
57827;BME280;43656;57.746;11.780;2023-01-28T06:58:08;102016.38;;;6.27;94.15
57827;BME280;43656;57.746;11.780;2023-01-28T07:00:34;102018.88;;;6.39;93.62
57827;BME280;43656;57.746;11.780;2023-01-28T07:03:00;102014.69;;;6.36;93.89
57827;BME280;43656;57.746;11.780;2023-01-28T07:05:25;102018.06;;;6.38;94.03
57827;BME280;43656;57.746;11.780;2023-01-28T07:07:51;102028.75;;;6.38;94.17
57827;BME280;43656;57.746;11.780;2023-01-28T07:10:16;102016.22;;;6.29;94.40
57827;BME280;43656;57.746;11.780;2023-01-28T07:12:42;102020.44;;;6.31;93.92
57827;BME280;43656;57.746;11.780;2023-01-28T07:15:08;102027.63;;;6.41;94.23
57827;BME280;43656;57.746;11.780;2023-01-28T07:17:37;101996.38;;;6.31;94.14
57827;BME280;43656;57.746;11.780;2023-01-28T07:20:04;102018.59;;;6.32;94.58
57827;BME280;43656;57.746;11.780;2023-01-28T07:22:29;102015.81;;;6.33;94.87
57827;BME280;43656;57.746;11.780;2023-01-28T07:24:55;102020.44;;;6.41;94.74
57827;BME280;43656;57.746;11.780;2023-01-28T07:27:20;102028.75;;;6.38;94.86
57827;BME280;43656;57.746;11.780;2023-01-28T07:29:45;102020.88;;;6.17;96.29
57827;BME280;43656;57.746;11.780;2023-01-28T07:32:11;102018.50;;;6.24;96.14
57827;BME280;43656;57.746;11.780;2023-01-28T07:34:36;102033.97;;;6.40;95.97
57827;BME280;43656;57.746;11.780;2023-01-28T07:37:04;102040.84;;;6.52;95.36
57827;BME280;43656;57.746;11.780;2023-01-28T07:39:30;102041.81;;;6.51;95.25
57827;BME280;43656;57.746;11.780;2023-01-28T07:41:56;102032.97;;;6.50;95.24
57827;BME280;43656;57.746;11.780;2023-01-28T07:44:21;102030.28;;;6.50;95.67
57827;BME280;43656;57.746;11.780;2023-01-28T07:46:47;102032.13;;;6.50;95.18
57827;BME280;43656;57.746;11.780;2023-01-28T07:49:12;102028.72;;;6.57;95.12
57827;BME280;43656;57.746;11.780;2023-01-28T07:51:37;102035.47;;;6.52;95.57
57827;BME280;43656;57.746;11.780;2023-01-28T07:54:03;102030.28;;;6.50;95.63
57827;BME280;43656;57.746;11.780;2023-01-28T07:56:30;101998.78;;;6.44;95.61
57827;BME280;43656;57.746;11.780;2023-01-28T07:58:55;102030.56;;;6.57;95.62
57827;BME280;43656;57.746;11.780;2023-01-28T08:01:21;102030.56;;;6.67;94.96
57827;BME280;43656;57.746;11.780;2023-01-28T08:03:46;102018.19;;;6.56;94.78
57827;BME280;43656;57.746;11.780;2023-01-28T08:06:11;102012.94;;;6.64;95.12
57827;BME280;43656;57.746;11.780;2023-01-28T08:08:37;102006.75;;;6.64;95.30
57827;BME280;43656;57.746;11.780;2023-01-28T08:11:09;101987.06;;;6.55;95.85
57827;BME280;43656;57.746;11.780;2023-01-28T08:13:36;102013.78;;;6.74;94.90
57827;BME280;43656;57.746;11.780;2023-01-28T08:16:01;102014.03;;;6.81;94.83
57827;BME280;43656;57.746;11.780;2023-01-28T08:18:27;102018.06;;;6.95;94.55
57827;BME280;43656;57.746;11.780;2023-01-28T08:20:57;102015.84;;;6.90;95.03
57827;BME280;43656;57.746;11.780;2023-01-28T08:23:23;101996.69;;;6.85;94.76
57827;BME280;43656;57.746;11.780;2023-01-28T08:25:52;101975.31;;;6.85;95.09
57827;BME280;43656;57.746;11.780;2023-01-28T08:28:19;101985.91;;;7.14;93.94
57827;BME280;43656;57.746;11.780;2023-01-28T08:30:45;101987.59;;;7.15;94.03
57827;BME280;43656;57.746;11.780;2023-01-28T08:33:13;101983.94;;;7.16;94.58
57827;BME280;43656;57.746;11.780;2023-01-28T08:35:39;101981.66;;;7.12;94.74
57827;BME280;43656;57.746;11.780;2023-01-28T08:38:06;101979.72;;;7.14;94.59
57827;BME280;43656;57.746;11.780;2023-01-28T08:40:32;101967.31;;;7.13;94.57
57827;BME280;43656;57.746;11.780;2023-01-28T08:42:58;101962.50;;;7.16;94.43
57827;BME280;43656;57.746;11.780;2023-01-28T08:45:25;101962.59;;;7.24;94.13
57827;BME280;43656;57.746;11.780;2023-01-28T08:47:53;101956.16;;;7.17;94.63
57827;BME280;43656;57.746;11.780;2023-01-28T08:50:20;101949.19;;;7.06;94.45
57827;BME280;43656;57.746;11.780;2023-01-28T08:52:47;101949.91;;;6.99;94.93
57827;BME280;43656;57.746;11.780;2023-01-28T08:55:14;101963.25;;;7.09;95.00
57827;BME280;43656;57.746;11.780;2023-01-28T08:57:40;101973.34;;;7.15;94.63
57827;BME280;43656;57.746;11.780;2023-01-28T09:00:07;101953.41;;;7.09;94.89
57827;BME280;43656;57.746;11.780;2023-01-28T09:02:36;101958.72;;;7.19;94.23
57827;BME280;43656;57.746;11.780;2023-01-28T09:05:02;101964.91;;;7.19;94.09
57827;BME280;43656;57.746;11.780;2023-01-28T09:07:27;101941.78;;;7.18;94.04
57827;BME280;43656;57.746;11.780;2023-01-28T09:09:52;101958.66;;;7.28;94.29
57827;BME280;43656;57.746;11.780;2023-01-28T09:12:18;101950.47;;;7.30;94.24
57827;BME280;43656;57.746;11.780;2023-01-28T09:14:43;101955.97;;;7.28;94.24
57827;BME280;43656;57.746;11.780;2023-01-28T09:17:09;101931.00;;;7.28;94.40
57827;BME280;43656;57.746;11.780;2023-01-28T09:19:34;101947.97;;;7.46;94.14
57827;BME280;43656;57.746;11.780;2023-01-28T09:22:02;101934.34;;;7.40;94.12
57827;BME280;43656;57.746;11.780;2023-01-28T09:24:28;101951.13;;;7.60;93.76
57827;BME280;43656;57.746;11.780;2023-01-28T09:26:53;101939.34;;;7.52;93.63
57827;BME280;43656;57.746;11.780;2023-01-28T09:29:19;101951.66;;;7.63;94.21
57827;BME280;43656;57.746;11.780;2023-01-28T09:31:44;101934.34;;;7.58;93.93
57827;BME280;43656;57.746;11.780;2023-01-28T09:34:09;101941.19;;;7.70;93.87
57827;BME280;43656;57.746;11.780;2023-01-28T09:36:35;101928.78;;;7.69;93.65
57827;BME280;43656;57.746;11.780;2023-01-28T09:39:01;101904.13;;;7.47;94.09
57827;BME280;43656;57.746;11.780;2023-01-28T09:41:31;101929.41;;;7.63;93.97
57827;BME280;43656;57.746;11.780;2023-01-28T09:46:34;101921.78;;;7.58;94.82
57827;BME280;43656;57.746;11.780;2023-01-28T09:49:05;101925.56;;;7.65;94.37
57827;BME280;43656;57.746;11.780;2023-01-28T09:51:42;101918.38;;;7.66;95.07
57827;BME280;43656;57.746;11.780;2023-01-28T09:54:34;101920.44;;;7.72;94.53
57827;BME280;43656;57.746;11.780;2023-01-28T09:57:05;101920.97;;;7.75;94.03
57827;BME280;43656;57.746;11.780;2023-01-28T09:59:33;101927.78;;;7.70;94.06
57827;BME280;43656;57.746;11.780;2023-01-28T10:02:43;101921.59;;;7.69;94.52
57827;BME280;43656;57.746;11.780;2023-01-28T10:11:23;101912.47;;;7.62;94.96
57827;BME280;43656;57.746;11.780;2023-01-28T10:13:51;101918.31;;;7.75;94.44
57827;BME280;43656;57.746;11.780;2023-01-28T10:16:44;101909.19;;;7.68;94.67
57827;BME280;43656;57.746;11.780;2023-01-28T10:24:16;101910.63;;;7.81;94.46
57827;BME280;43656;57.746;11.780;2023-01-28T10:26:43;101900.91;;;7.80;94.98
57827;BME280;43656;57.746;11.780;2023-01-28T10:29:16;101905.28;;;7.81;94.21
57827;BME280;43656;57.746;11.780;2023-01-28T10:31:53;101895.69;;;7.78;94.86
57827;BME280;43656;57.746;11.780;2023-01-28T10:34:20;101893.81;;;7.88;94.62
57827;BME280;43656;57.746;11.780;2023-01-28T10:36:47;101882.91;;;7.90;94.55
57827;BME280;43656;57.746;11.780;2023-01-28T10:39:14;101890.13;;;7.89;94.79
57827;BME280;43656;57.746;11.780;2023-01-28T10:41:40;101891.22;;;7.79;94.93
57827;BME280;43656;57.746;11.780;2023-01-28T10:44:13;101903.28;;;7.83;94.94
57827;BME280;43656;57.746;11.780;2023-01-28T10:46:41;101886.16;;;7.75;94.92
57827;BME280;43656;57.746;11.780;2023-01-28T10:51:40;101888.28;;;7.90;95.45
57827;BME280;43656;57.746;11.780;2023-01-28T10:54:24;101874.16;;;8.06;94.74
57827;BME280;43656;57.746;11.780;2023-01-28T10:56:52;101876.16;;;8.04;95.39
57827;BME280;43656;57.746;11.780;2023-01-28T10:59:24;101879.53;;;8.06;95.55
57827;BME280;43656;57.746;11.780;2023-01-28T11:01:58;101870.56;;;8.15;95.25
57827;BME280;43656;57.746;11.780;2023-01-28T11:04:27;101872.56;;;8.21;95.27
57827;BME280;43656;57.746;11.780;2023-01-28T11:07:04;101870.06;;;8.19;95.68
57827;BME280;43656;57.746;11.780;2023-01-28T11:09:45;101868.22;;;8.20;95.40
57827;BME280;43656;57.746;11.780;2023-01-28T11:12:11;101864.88;;;8.18;95.65
57827;BME280;43656;57.746;11.780;2023-01-28T11:14:37;101859.50;;;8.18;95.92
57827;BME280;43656;57.746;11.780;2023-01-28T11:17:02;101840.38;;;8.13;95.89
57827;BME280;43656;57.746;11.780;2023-01-28T11:19:33;101779.13;;;7.74;96.84
57827;BME280;43656;57.746;11.780;2023-01-28T11:21:59;101838.31;;;8.07;97.10
57827;BME280;43656;57.746;11.780;2023-01-28T11:24:28;101823.44;;;7.86;97.64
57827;BME280;43656;57.746;11.780;2023-01-28T11:26:56;101834.28;;;8.03;97.70
57827;BME280;43656;57.746;11.780;2023-01-28T11:29:32;101842.00;;;8.06;97.44
57827;BME280;43656;57.746;11.780;2023-01-28T11:31:59;101834.47;;;8.09;97.04
57827;BME280;43656;57.746;11.780;2023-01-28T11:34:30;101829.97;;;8.10;96.69
57827;BME280;43656;57.746;11.780;2023-01-28T11:37:12;101813.88;;;8.10;96.91
57827;BME280;43656;57.746;11.780;2023-01-28T11:39:43;101823.75;;;8.09;97.43
57827;BME280;43656;57.746;11.780;2023-01-28T11:42:26;101819.97;;;8.20;97.06
57827;BME280;43656;57.746;11.780;2023-01-28T11:44:52;101815.31;;;8.30;96.80
57827;BME280;43656;57.746;11.780;2023-01-28T11:50:24;101816.03;;;8.32;97.27
57827;BME280;43656;57.746;11.780;2023-01-28T11:53:21;101811.53;;;8.41;96.92
57827;BME280;43656;57.746;11.780;2023-01-28T11:59:13;101787.47;;;8.49;97.54
57827;BME280;43656;57.746;11.780;2023-01-28T12:09:59;101794.19;;;8.53;98.04
57827;BME280;43656;57.746;11.780;2023-01-28T12:28:59;101800.03;;;8.49;98.44
57827;BME280;43656;57.746;11.780;2023-01-28T12:37:50;101755.97;;;8.59;98.15
57827;BME280;43656;57.746;11.780;2023-01-28T12:45:50;101744.38;;;8.51;98.81
57827;BME280;43656;57.746;11.780;2023-01-28T12:48:42;101734.69;;;8.58;98.08
57827;BME280;43656;57.746;11.780;2023-01-28T12:51:14;101744.75;;;8.64;98.33
57827;BME280;43656;57.746;11.780;2023-01-28T12:53:42;101740.63;;;8.86;96.86
57827;BME280;43656;57.746;11.780;2023-01-28T12:56:17;101737.59;;;8.89;97.58
57827;BME280;43656;57.746;11.780;2023-01-28T12:59:06;101737.78;;;8.87;97.87
57827;BME280;43656;57.746;11.780;2023-01-28T13:02:05;101737.59;;;8.89;97.34
57827;BME280;43656;57.746;11.780;2023-01-28T13:05:15;101740.47;;;8.87;98.16
57827;BME280;43656;57.746;11.780;2023-01-28T13:08:02;101737.78;;;8.96;97.23
57827;BME280;43656;57.746;11.780;2023-01-28T13:10:40;101738.81;;;9.11;96.63
57827;BME280;43656;57.746;11.780;2023-01-28T13:13:06;101729.75;;;9.12;95.75
57827;BME280;43656;57.746;11.780;2023-01-28T13:15:39;101721.38;;;9.15;95.72
57827;BME280;43656;57.746;11.780;2023-01-28T13:18:06;101703.38;;;9.24;95.65
57827;BME280;43656;57.746;11.780;2023-01-28T13:20:36;101700.03;;;9.30;95.34
57827;BME280;43656;57.746;11.780;2023-01-28T13:23:24;101698.53;;;9.19;96.02
57827;BME280;43656;57.746;11.780;2023-01-28T13:25:53;101705.06;;;9.16;96.02
57827;BME280;43656;57.746;11.780;2023-01-28T13:28:27;101702.22;;;9.10;96.80
57827;BME280;43656;57.746;11.780;2023-01-28T13:31:07;101688.13;;;9.16;95.89
57827;BME280;43656;57.746;11.780;2023-01-28T13:33:40;101692.47;;;9.17;95.45
57827;BME280;43656;57.746;11.780;2023-01-28T13:36:45;101676.22;;;9.18;95.65
57827;BME280;43656;57.746;11.780;2023-01-28T13:39:18;101670.34;;;8.99;96.58
57827;BME280;43656;57.746;11.780;2023-01-28T13:41:49;101664.63;;;8.85;97.13
57827;BME280;43656;57.746;11.780;2023-01-28T13:46:50;101665.31;;;8.96;96.04
57827;BME280;43656;57.746;11.780;2023-01-28T13:49:21;101645.69;;;8.79;96.33
57827;BME280;43656;57.746;11.780;2023-01-28T13:55:16;101658.41;;;8.77;97.15
57827;BME280;43656;57.746;11.780;2023-01-28T14:17:49;101657.22;;;8.55;95.28
57827;BME280;43656;57.746;11.780;2023-01-28T14:20:29;101667.28;;;8.61;95.35
57827;BME280;43656;57.746;11.780;2023-01-28T14:23:04;101676.19;;;8.61;95.95
57827;BME280;43656;57.746;11.780;2023-01-28T14:28:20;101670.13;;;8.67;95.23
57827;BME280;43656;57.746;11.780;2023-01-28T14:30:53;101672.31;;;8.64;94.64
57827;BME280;43656;57.746;11.780;2023-01-28T14:33:21;101665.16;;;8.30;96.19
57827;BME280;43656;57.746;11.780;2023-01-28T14:35:48;101688.66;;;8.36;95.78
57827;BME280;43656;57.746;11.780;2023-01-28T14:38:19;101675.56;;;8.25;95.89
57827;BME280;43656;57.746;11.780;2023-01-28T14:40:49;101693.50;;;8.24;96.38
57827;BME280;43656;57.746;11.780;2023-01-28T14:43:20;101700.03;;;8.30;95.81
57827;BME280;43656;57.746;11.780;2023-01-28T14:48:25;101700.38;;;8.35;95.04
57827;BME280;43656;57.746;11.780;2023-01-28T14:58:53;101691.97;;;8.22;95.10
57827;BME280;43656;57.746;11.780;2023-01-28T15:01:24;101698.16;;;8.22;94.48
57827;BME280;43656;57.746;11.780;2023-01-28T15:03:50;101695.28;;;8.16;94.49
57827;BME280;43656;57.746;11.780;2023-01-28T15:06:19;101695.09;;;8.09;95.11
57827;BME280;43656;57.746;11.780;2023-01-28T15:08:46;101697.06;;;8.07;94.05
57827;BME280;43656;57.746;11.780;2023-01-28T15:11:16;101687.66;;;7.95;95.04